createdAt,value
2022-08-05T00:02:26.827Z,58.75
2022-08-05T00:04:55.783Z,59.06
2022-08-05T00:08:00.521Z,58.69
2022-08-05T00:10:09.944Z,58.78
2022-08-05T00:12:55.623Z,59.05
2022-08-05T00:15:55.410Z,58.98
2022-08-05T00:18:10.283Z,58.69
2022-08-05T00:20:47.828Z,58.63
2022-08-05T00:23:15.134Z,58.45
2022-08-05T00:25:46.000Z,58.67
2022-08-05T00:28:13.187Z,58.53
2022-08-05T00:30:39.795Z,58.54
2022-08-05T00:34:41.980Z,58.65
2022-08-05T00:36:16.185Z,58.79
2022-08-05T00:38:44.164Z,59.21
2022-08-05T00:41:11.741Z,58.81
2022-08-05T00:43:46.975Z,58.92
2022-08-05T00:46:13.785Z,59.06
2022-08-05T00:48:50.668Z,58.90
2022-08-05T00:51:52.013Z,59.10
2022-08-05T00:54:05.446Z,58.91
2022-08-05T00:56:31.867Z,58.97
2022-08-05T00:58:58.249Z,58.98
2022-08-05T01:01:42.605Z,59.25
2022-08-05T01:04:14.331Z,59.09
2022-08-05T01:06:43.684Z,59.19
2022-08-05T01:09:14.397Z,58.76
2022-08-05T01:11:46.112Z,58.96
2022-08-05T01:14:33.390Z,59.29
2022-08-05T01:17:07.042Z,59.06
2022-08-05T01:20:01.137Z,59.15
2022-08-05T01:23:15.332Z,59.00
2022-08-05T01:26:00.387Z,58.91
2022-08-05T01:28:35.567Z,59.28
2022-08-05T01:31:27.773Z,59.27
2022-08-05T01:34:08.487Z,59.25
2022-08-05T01:36:42.169Z,59.22
2022-08-05T01:39:46.608Z,59.01
2022-08-05T01:42:03.557Z,59.36
2022-08-05T01:44:35.281Z,59.16
2022-08-05T01:47:02.584Z,59.31
2022-08-05T01:50:00.235Z,59.26
2022-08-05T01:52:22.776Z,59.13
2022-08-05T01:54:53.858Z,59.16
2022-08-05T01:58:12.660Z,58.99
2022-08-05T02:00:15.169Z,58.87
2022-08-05T02:02:51.397Z,59.46
2022-08-05T02:05:24.981Z,59.32
2022-08-05T02:08:00.157Z,58.96
2022-08-05T02:10:31.146Z,59.25
2022-08-05T02:13:17.266Z,59.29
2022-08-05T02:15:47.218Z,58.78
2022-08-05T02:18:41.953Z,59.03
2022-08-05T02:21:21.899Z,59.14
2022-08-05T02:23:52.255Z,58.98
2022-08-05T02:26:26.483Z,59.04
2022-08-05T02:28:55.923Z,59.17
2022-08-05T02:31:28.481Z,59.05
2022-08-05T02:34:10.898Z,59.00
2022-08-05T02:36:42.617Z,58.94
2022-08-05T02:39:10.461Z,58.84
2022-08-05T02:41:57.606Z,58.97
2022-08-05T02:44:27.294Z,58.92
2022-08-05T02:47:00.112Z,59.03
2022-08-05T02:49:36.915Z,58.99
2022-08-05T02:52:07.622Z,58.77
2022-08-05T02:54:37.110Z,58.98
2022-08-05T02:57:10.404Z,58.97
2022-08-05T02:59:55.166Z,58.94
2022-08-05T03:02:27.657Z,59.12
2022-08-05T03:04:56.255Z,58.65
2022-08-05T03:07:40.446Z,58.94
2022-08-05T03:10:10.738Z,58.89
2022-08-05T03:12:40.219Z,58.80
2022-08-05T03:15:09.785Z,59.01
2022-08-05T03:17:40.714Z,58.95
2022-08-05T03:20:09.129Z,58.99
2022-08-05T03:22:36.704Z,59.10
2022-08-05T03:25:31.826Z,59.22
2022-08-05T03:27:59.340Z,58.78
2022-08-05T03:30:30.174Z,58.95
2022-08-05T03:33:05.832Z,59.01
2022-08-05T03:35:33.766Z,59.09
2022-08-05T03:38:06.983Z,59.04
2022-08-05T03:40:34.099Z,59.07
2022-08-05T03:43:59.203Z,58.97
2022-08-05T03:45:58.083Z,58.91
2022-08-05T03:48:29.609Z,59.04
2022-08-05T03:52:37.482Z,59.07
2022-08-05T03:55:51.764Z,59.15
2022-08-05T03:57:16.865Z,58.82
2022-08-05T03:59:55.007Z,59.08
2022-08-05T04:02:39.168Z,59.14
2022-08-05T04:05:12.985Z,58.78
2022-08-05T04:07:58.580Z,58.72
2022-08-05T04:10:27.851Z,58.92
2022-08-05T04:12:56.280Z,59.15
2022-08-05T04:15:26.366Z,59.20
2022-08-05T04:17:56.258Z,59.24
2022-08-05T04:20:24.201Z,58.85
2022-08-05T04:22:50.603Z,59.20
2022-08-05T04:25:17.103Z,59.02
2022-08-05T04:27:57.250Z,58.90
2022-08-05T04:30:24.617Z,58.83
2022-08-05T04:32:53.279Z,59.15
2022-08-05T04:35:20.065Z,58.94
2022-08-05T04:38:02.696Z,59.36
2022-08-05T04:40:37.780Z,59.29
2022-08-05T04:43:16.471Z,58.64
2022-08-05T04:45:48.138Z,59.08
2022-08-05T04:48:18.493Z,58.70
2022-08-05T04:51:03.622Z,58.91
2022-08-05T04:53:38.784Z,58.85
2022-08-05T04:56:32.810Z,58.89
2022-08-05T04:58:55.200Z,58.98
2022-08-05T05:02:05.740Z,59.03
2022-08-05T05:04:08.083Z,59.11
2022-08-05T05:06:44.529Z,58.44
2022-08-05T05:09:17.684Z,58.34
2022-08-05T05:11:53.925Z,58.67
2022-08-05T05:14:27.819Z,59.07
2022-08-05T05:16:59.821Z,58.03
2022-08-05T05:19:36.132Z,57.17
2022-08-05T05:22:23.469Z,57.09
2022-08-05T05:24:56.427Z,56.64
2022-08-05T05:27:24.836Z,56.95
2022-08-05T05:30:28.879Z,56.89
2022-08-05T05:32:55.830Z,56.92
2022-08-05T05:35:22.971Z,57.04
2022-08-05T05:38:00.122Z,57.14
2022-08-05T05:40:29.582Z,57.21
2022-08-05T05:42:56.815Z,57.38
2022-08-05T05:45:23.440Z,57.20
2022-08-05T05:48:06.350Z,57.25
2022-08-05T05:50:41.318Z,57.36
2022-08-05T05:53:20.877Z,57.79
2022-08-05T05:55:51.636Z,57.68
2022-08-05T05:58:30.121Z,57.57
2022-08-05T06:00:56.907Z,57.72
2022-08-05T06:03:39.914Z,57.36
2022-08-05T06:06:09.834Z,57.26
2022-08-05T06:08:36.496Z,56.91
2022-08-05T06:11:06.215Z,57.13
2022-08-05T06:13:40.716Z,56.83
2022-08-05T06:16:30.229Z,56.88
2022-08-05T06:19:01.044Z,56.43
2022-08-05T06:21:36.657Z,56.78
2022-08-05T06:24:12.213Z,56.68
2022-08-05T06:26:51.359Z,56.49
2022-08-05T06:29:25.208Z,56.19
2022-08-05T06:32:05.171Z,56.24
2022-08-05T06:34:48.008Z,56.13
2022-08-05T06:37:56.137Z,56.07
2022-08-05T06:40:06.880Z,56.16
2022-08-05T06:42:33.272Z,56.00
2022-08-05T06:44:59.619Z,55.74
2022-08-05T06:48:36.385Z,55.53
2022-08-05T06:50:18.187Z,55.60
2022-08-05T06:52:44.593Z,55.32
2022-08-05T06:55:25.236Z,55.46
2022-08-05T06:58:03.916Z,55.53
2022-08-05T07:00:41.120Z,54.79
2022-08-05T07:03:09.636Z,55.05
2022-08-05T07:05:37.682Z,54.79
2022-08-05T07:08:10.992Z,54.81
2022-08-05T07:10:38.290Z,55.05
2022-08-05T07:13:58.407Z,54.73
2022-08-05T07:18:02.050Z,54.19
2022-08-05T07:19:44.254Z,54.30
2022-08-05T07:22:06.664Z,54.30
2022-08-05T07:24:35.145Z,54.45
2022-08-05T07:27:10.484Z,53.85
2022-08-05T07:30:27.639Z,53.88
2022-08-05T07:32:26.298Z,53.77
2022-08-05T07:34:57.903Z,53.45
2022-08-05T07:37:29.016Z,53.73
2022-08-05T07:40:26.887Z,53.37
2022-08-05T07:42:42.251Z,53.00
2022-08-05T07:45:10.717Z,53.28
2022-08-05T07:47:42.119Z,53.10
2022-08-05T07:50:09.687Z,53.53
2022-08-05T07:52:40.488Z,52.56
2022-08-05T07:55:44.044Z,52.56
2022-08-05T07:58:02.064Z,51.05
2022-08-05T08:00:29.611Z,51.40
2022-08-05T08:03:13.874Z,49.24
2022-08-05T08:05:49.343Z,49.11
2022-08-05T08:08:19.918Z,48.96
2022-08-05T08:10:48.706Z,48.64
2022-08-05T08:13:15.677Z,48.26
2022-08-05T08:16:34.773Z,48.40
2022-08-05T08:18:35.031Z,48.94
2022-08-05T08:21:09.762Z,48.69
2022-08-05T08:24:01.456Z,49.13
2022-08-05T08:26:30.283Z,49.89
2022-08-05T08:29:02.156Z,50.42
2022-08-05T08:31:43.650Z,50.36
2022-08-05T08:34:10.168Z,50.57
2022-08-05T08:36:50.174Z,50.75
2022-08-05T08:39:23.321Z,48.76
2022-08-05T08:41:59.852Z,48.05
2022-08-05T08:45:24.938Z,48.41
2022-08-05T08:48:06.884Z,47.68
2022-08-05T08:50:31.119Z,47.92
2022-08-05T08:53:07.733Z,47.18
2022-08-05T08:56:02.521Z,48.32
2022-08-05T08:58:26.119Z,49.32
2022-08-05T09:01:07.291Z,49.29
2022-08-05T09:03:40.469Z,49.48
2022-08-05T09:06:15.820Z,49.28
2022-08-05T09:08:46.601Z,49.40
2022-08-05T09:11:14.739Z,49.40
2022-08-05T09:14:09.460Z,49.58
2022-08-05T09:16:29.208Z,47.95
2022-08-05T09:18:56.143Z,46.15
2022-08-05T09:22:23.109Z,46.46
2022-08-05T09:24:15.338Z,46.43
2022-08-05T09:26:43.556Z,45.41
2022-08-05T09:29:10.294Z,46.00
2022-08-05T09:32:41.545Z,45.84
2022-08-05T09:34:23.406Z,45.32
2022-08-05T09:36:56.327Z,45.04
2022-08-05T09:39:41.346Z,45.20
2022-08-05T09:42:23.736Z,42.54
2022-08-05T09:44:56.181Z,41.82
2022-08-05T09:47:26.099Z,42.50
2022-08-05T09:50:02.507Z,41.71
2022-08-05T09:52:32.796Z,42.55
2022-08-05T09:55:57.917Z,42.42
2022-08-05T09:58:00.034Z,42.35
2022-08-05T10:00:27.773Z,41.58
2022-08-05T10:02:58.430Z,40.03
2022-08-05T10:05:27.745Z,40.02
2022-08-05T10:08:35.289Z,41.40
2022-08-05T10:10:50.184Z,42.32
2022-08-05T10:13:47.835Z,43.15
2022-08-05T10:16:52.868Z,44.05
2022-08-05T10:19:23.746Z,44.44
2022-08-05T10:21:58.989Z,44.33
2022-08-05T10:24:27.174Z,44.09
2022-08-05T10:26:56.128Z,42.93
2022-08-05T10:30:06.314Z,43.41
2022-08-05T10:32:54.149Z,44.00
2022-08-05T10:35:02.775Z,43.49
2022-08-05T10:37:37.206Z,43.67
2022-08-05T10:40:27.921Z,43.74
2022-08-05T10:43:01.133Z,43.45
2022-08-05T10:45:40.351Z,43.89
2022-08-05T10:48:52.924Z,43.69
2022-08-05T10:51:29.197Z,41.38
2022-08-05T10:54:01.559Z,41.08
2022-08-05T10:56:49.313Z,39.84
2022-08-05T11:00:03.480Z,39.37
2022-08-05T11:02:37.434Z,40.02
2022-08-05T11:05:05.760Z,39.82
2022-08-05T11:07:33.278Z,39.19
2022-08-05T11:10:27.132Z,39.31
2022-08-05T11:12:55.704Z,38.37
2022-08-05T11:16:01.171Z,37.68
2022-08-05T11:18:26.224Z,37.35
2022-08-05T11:20:53.733Z,37.25
2022-08-05T11:24:04.560Z,37.96
2022-08-05T11:26:28.206Z,37.40
2022-08-05T11:28:56.724Z,37.42
2022-08-05T11:31:57.148Z,37.57
2022-08-05T11:34:17.198Z,37.76
2022-08-05T11:36:52.817Z,37.90
2022-08-05T11:39:55.419Z,37.88
2022-08-05T11:42:28.084Z,36.81
2022-08-05T11:45:03.460Z,36.73
2022-08-05T11:47:48.673Z,37.08
2022-08-05T11:50:16.582Z,36.79
2022-08-05T11:52:44.110Z,37.00
2022-08-05T11:55:13.332Z,37.05
2022-08-05T11:58:09.174Z,37.31
2022-08-05T12:00:32.509Z,37.77
2022-08-05T12:03:31.585Z,38.83
2022-08-05T12:06:06.038Z,38.42
2022-08-05T12:08:50.889Z,38.73
2022-08-05T12:11:20.793Z,39.10
2022-08-05T12:14:13.625Z,38.94
2022-08-05T12:16:45.649Z,38.19
2022-08-05T12:20:16.745Z,38.51
2022-08-05T12:22:01.102Z,37.86
2022-08-05T12:24:27.692Z,37.71
2022-08-05T12:26:54.667Z,37.96
2022-08-05T12:29:23.685Z,37.99
2022-08-05T12:31:54.539Z,38.60
2022-08-05T12:34:23.744Z,39.12
2022-08-05T12:36:53.522Z,39.46
2022-08-05T12:39:20.773Z,39.08
2022-08-05T12:41:47.334Z,39.56
2022-08-05T12:44:21.625Z,40.39
2022-08-05T12:47:00.020Z,40.42
2022-08-05T12:50:04.561Z,40.83
2022-08-05T12:52:32.349Z,40.86
2022-08-05T12:55:22.977Z,41.00
2022-08-05T12:58:48.634Z,42.05
2022-08-05T13:02:00.873Z,42.56
2022-08-05T13:03:32.374Z,42.61
2022-08-05T13:05:59.685Z,43.27
2022-08-05T13:08:30.123Z,43.78
2022-08-05T13:11:04.249Z,44.00
2022-08-05T13:14:04.637Z,44.24
2022-08-05T13:16:19.582Z,44.45
2022-08-05T13:18:57.892Z,44.67
2022-08-05T13:21:27.958Z,44.52
2022-08-05T13:23:55.249Z,44.63
2022-08-05T13:26:25.507Z,44.75
2022-08-05T13:28:56.764Z,45.32
2022-08-05T13:32:02.795Z,43.47
2022-08-05T13:34:23.298Z,43.15
2022-08-05T13:36:52.065Z,43.11
2022-08-05T13:39:24.477Z,44.04
2022-08-05T13:42:04.969Z,44.26
2022-08-05T13:44:32.439Z,43.98
2022-08-05T13:47:02.527Z,44.46
2022-08-05T13:49:35.403Z,44.44
2022-08-05T13:52:20.687Z,44.56
2022-08-05T13:54:56.811Z,45.24
2022-08-05T13:57:26.022Z,43.94
2022-08-05T14:00:12.576Z,44.48
2022-08-05T14:02:39.571Z,44.27
2022-08-05T14:05:12.123Z,45.17
2022-08-05T14:08:00.371Z,44.71
2022-08-05T14:10:31.053Z,44.59
2022-08-05T14:12:58.237Z,45.04
2022-08-05T14:16:09.127Z,45.25
2022-08-05T14:18:17.316Z,45.18
2022-08-05T14:20:48.670Z,45.33
2022-08-05T14:23:24.251Z,45.03
2022-08-05T14:25:55.368Z,44.89
2022-08-05T14:28:27.083Z,44.87
2022-08-05T14:30:54.349Z,44.82
2022-08-05T14:33:22.567Z,45.16
2022-08-05T14:35:51.786Z,42.53
2022-08-05T14:38:32.094Z,41.41
2022-08-05T14:41:01.849Z,42.47
2022-08-05T14:44:02.461Z,42.75
2022-08-05T14:46:20.176Z,43.68
2022-08-05T14:48:50.010Z,43.85
2022-08-05T14:51:18.315Z,44.13
2022-08-05T14:54:06.949Z,43.48
2022-08-05T14:56:33.864Z,43.16
2022-08-05T14:59:00.389Z,42.60
2022-08-05T15:01:47.895Z,42.09
2022-08-05T15:04:13.735Z,42.69
2022-08-05T15:06:40.401Z,42.00
2022-08-05T15:09:07.220Z,42.13
2022-08-05T15:11:52.959Z,42.50
2022-08-05T15:14:34.703Z,42.20
2022-08-05T15:17:09.827Z,42.40
2022-08-05T15:19:53.613Z,42.36
2022-08-05T15:22:21.554Z,42.69
2022-08-05T15:24:54.090Z,42.29
2022-08-05T15:27:20.477Z,42.56
2022-08-05T15:29:46.987Z,42.61
2022-08-05T15:32:18.171Z,42.62
2022-08-05T15:34:44.564Z,43.09
2022-08-05T15:37:14.847Z,43.92
2022-08-05T15:41:00.282Z,44.14
2022-08-05T15:42:58.266Z,43.75
2022-08-05T15:45:37.905Z,43.99
2022-08-05T15:48:05.573Z,43.79
2022-08-05T15:50:33.281Z,43.87
2022-08-05T15:53:05.192Z,43.67
2022-08-05T15:56:03.141Z,43.56
2022-08-05T15:58:21.251Z,43.55
2022-08-05T16:01:03.444Z,44.27
2022-08-05T16:03:40.889Z,43.88
2022-08-05T16:06:08.875Z,44.20
2022-08-05T16:08:38.262Z,44.52
2022-08-05T16:11:06.999Z,44.42
2022-08-05T16:13:35.019Z,44.42
2022-08-05T16:16:04.717Z,43.95
2022-08-05T16:18:32.871Z,42.84
2022-08-05T16:21:04.345Z,42.28
2022-08-05T16:23:53.234Z,41.93
2022-08-05T16:26:18.491Z,41.35
2022-08-05T16:28:46.657Z,41.54
2022-08-05T16:31:13.097Z,41.18
2022-08-05T16:33:41.800Z,41.22
2022-08-05T16:36:09.071Z,41.20
2022-08-05T16:38:35.645Z,41.27
2022-08-05T16:42:12.683Z,41.78
2022-08-05T16:43:49.344Z,41.50
2022-08-05T16:46:25.108Z,41.13
2022-08-05T16:48:51.725Z,40.69
2022-08-05T16:51:19.000Z,40.33
2022-08-05T16:54:03.141Z,39.91
2022-08-05T16:56:34.437Z,38.32
2022-08-05T16:59:08.871Z,40.00
2022-08-05T17:01:53.057Z,40.43
2022-08-05T17:04:21.414Z,40.46
2022-08-05T17:06:53.484Z,40.83
2022-08-05T17:09:20.256Z,40.68
2022-08-05T17:11:48.623Z,40.83
2022-08-05T17:14:34.258Z,40.92
2022-08-05T17:17:04.904Z,41.02
2022-08-05T17:19:31.410Z,40.29
2022-08-05T17:21:58.431Z,41.02
2022-08-05T17:24:35.021Z,41.46
2022-08-05T17:27:07.968Z,41.16
2022-08-05T17:29:40.810Z,41.88
2022-08-05T17:32:17.396Z,41.96
2022-08-05T17:34:47.522Z,42.37
2022-08-05T17:37:41.201Z,42.44
2022-08-05T17:40:01.745Z,42.50
2022-08-05T17:42:32.097Z,42.48
2022-08-05T17:45:09.902Z,42.58
2022-08-05T17:47:51.351Z,42.35
2022-08-05T17:50:27.803Z,41.71
2022-08-05T17:52:58.670Z,41.53
2022-08-05T17:55:38.280Z,41.32
2022-08-05T17:58:12.948Z,41.19
2022-08-05T18:00:47.835Z,42.04
2022-08-05T18:03:59.764Z,42.39
2022-08-05T18:06:11.464Z,42.16
2022-08-05T18:08:40.593Z,42.61
2022-08-05T18:11:23.752Z,42.08
2022-08-05T18:13:51.507Z,42.52
2022-08-05T18:16:20.871Z,42.95
2022-08-05T18:18:50.106Z,42.95
2022-08-05T18:21:20.048Z,43.25
2022-08-05T18:23:54.503Z,43.65
2022-08-05T18:26:27.585Z,44.16
2022-08-05T18:28:56.460Z,43.83
2022-08-05T18:31:23.897Z,44.36
2022-08-05T18:33:51.632Z,44.81
2022-08-05T18:36:19.178Z,44.89
2022-08-05T18:38:46.204Z,45.25
2022-08-05T18:41:53.616Z,45.00
2022-08-05T18:44:06.419Z,44.73
2022-08-05T18:46:37.166Z,44.95
2022-08-05T18:49:30.550Z,45.38
2022-08-05T18:52:15.903Z,45.55
2022-08-05T18:54:45.883Z,45.92
2022-08-05T18:57:15.340Z,46.03
2022-08-05T19:00:02.589Z,45.42
2022-08-05T19:02:29.089Z,46.12
2022-08-05T19:05:02.914Z,46.14
2022-08-05T19:07:49.544Z,46.03
2022-08-05T19:10:17.411Z,46.12
2022-08-05T19:12:43.839Z,45.75
2022-08-05T19:15:56.924Z,45.71
2022-08-05T19:18:09.314Z,45.79
2022-08-05T19:20:37.361Z,45.85
2022-08-05T19:23:08.423Z,46.41
2022-08-05T19:25:48.691Z,46.30
2022-08-05T19:28:17.599Z,46.51
2022-08-05T19:30:48.828Z,46.56
2022-08-05T19:33:16.883Z,46.44
2022-08-05T19:35:56.423Z,46.48
2022-08-05T19:38:24.570Z,46.70
2022-08-05T19:40:56.323Z,46.82
2022-08-05T19:44:04.239Z,46.60
2022-08-05T19:46:16.710Z,46.77
2022-08-05T19:48:57.680Z,47.02
2022-08-05T19:52:05.390Z,46.81
2022-08-05T19:54:27.120Z,46.83
2022-08-05T19:57:02.336Z,46.49
2022-08-05T19:59:56.267Z,46.13
2022-08-05T20:02:32.658Z,45.87
2022-08-05T20:04:59.720Z,46.42
2022-08-05T20:07:46.721Z,46.10
2022-08-05T20:10:14.766Z,45.97
2022-08-05T20:12:49.337Z,46.28
2022-08-05T20:15:47.809Z,46.11
2022-08-05T20:18:10.723Z,46.95
2022-08-05T20:20:51.946Z,46.38
2022-08-05T20:23:22.718Z,46.85
2022-08-05T20:25:49.239Z,47.34
2022-08-05T20:28:18.747Z,47.30
2022-08-05T20:30:45.245Z,47.37
2022-08-05T20:33:14.291Z,47.54
2022-08-05T20:35:45.495Z,47.14
2022-08-05T20:38:14.441Z,47.56
2022-08-05T20:40:56.389Z,47.56
2022-08-05T20:43:58.484Z,47.54
2022-08-05T20:46:18.417Z,47.69
2022-08-05T20:48:53.527Z,47.64
2022-08-05T20:51:23.287Z,47.67
2022-08-05T20:53:55.096Z,47.51
2022-08-05T20:56:27.699Z,47.45
2022-08-05T20:58:55.464Z,47.50
2022-08-05T21:01:38.157Z,47.87
2022-08-05T21:04:07.221Z,47.79
2022-08-05T21:06:37.014Z,47.05
2022-08-05T21:09:05.574Z,47.50
2022-08-05T21:12:07.602Z,47.44
2022-08-05T21:14:19.911Z,47.53
2022-08-05T21:16:46.285Z,47.79
2022-08-05T21:19:12.997Z,47.10
2022-08-05T21:21:44.403Z,47.51
2022-08-05T21:24:17.043Z,47.78
2022-08-05T21:26:53.216Z,47.72
2022-08-05T21:29:20.309Z,47.41
2022-08-05T21:31:52.784Z,47.54
2022-08-05T21:34:20.287Z,46.31
2022-08-05T21:36:49.120Z,46.38
2022-08-05T21:39:17.006Z,46.17
2022-08-05T21:42:01.902Z,45.99
2022-08-05T21:44:30.171Z,45.76
2022-08-05T21:46:58.213Z,46.00
2022-08-05T21:49:58.459Z,45.88
2022-08-05T21:52:22.058Z,45.62
2022-08-05T21:54:55.092Z,45.37
2022-08-05T21:57:31.466Z,45.66
2022-08-05T22:00:06.399Z,45.57
2022-08-05T22:02:33.980Z,45.45
2022-08-05T22:05:00.479Z,45.72
2022-08-05T22:07:40.410Z,45.57
2022-08-05T22:10:15.760Z,45.24
2022-08-05T22:12:45.100Z,45.49
2022-08-05T22:16:01.136Z,45.39
2022-08-05T22:18:05.138Z,45.12
2022-08-05T22:20:31.682Z,45.11
2022-08-05T22:23:21.494Z,44.88
2022-08-05T22:26:10.745Z,44.75
2022-08-05T22:28:38.083Z,44.92
2022-08-05T22:31:05.710Z,45.02
2022-08-05T22:33:57.281Z,44.84
2022-08-05T22:36:18.812Z,44.88
2022-08-05T22:38:48.669Z,44.94
2022-08-05T22:41:16.444Z,44.80
2022-08-05T22:44:02.845Z,44.72
2022-08-05T22:46:29.221Z,44.49
2022-08-05T22:48:56.524Z,44.48
2022-08-05T22:52:03.095Z,44.67
2022-08-05T22:54:09.617Z,44.83
2022-08-05T22:56:36.039Z,44.59
2022-08-05T22:59:45.331Z,44.62
2022-08-05T23:02:06.167Z,44.85
2022-08-05T23:04:34.268Z,44.62
2022-08-05T23:07:00.954Z,44.81
2022-08-05T23:09:58.257Z,44.53
2022-08-05T23:12:13.947Z,44.91
2022-08-05T23:14:40.569Z,44.57
2022-08-05T23:17:34.202Z,44.56
2022-08-05T23:20:16.453Z,44.76
2022-08-05T23:22:47.820Z,44.59
2022-08-05T23:25:16.990Z,44.49
2022-08-05T23:28:03.190Z,44.75
2022-08-05T23:30:33.387Z,44.62
2022-08-05T23:33:07.321Z,44.88
2022-08-05T23:35:48.844Z,44.41
2022-08-05T23:38:15.958Z,44.62
2022-08-05T23:40:50.204Z,44.35
2022-08-05T23:43:24.773Z,44.31
2022-08-05T23:45:52.307Z,44.70
2022-08-05T23:48:19.667Z,44.59
2022-08-05T23:50:46.223Z,44.48
2022-08-05T23:53:22.956Z,44.25
2022-08-05T23:55:49.687Z,44.23
2022-08-05T23:58:32.074Z,44.41
